Time;durP1;ratioP1;P1;durP2;ratioP2;P2;SDS_P1;SDS_P2;PMS_P1;PMS_P2;Temp;Humidity;BMP_temperature;BMP_pressure;BME280_temperature;BME280_humidity;BME280_pressure;Samples;Min_cycle;Max_cycle;Signal;HPM_P1;HPM_P2
2021/11/25 00:01:56;;;;;;;22.30;11.63;;;7.00;97.80;;;;;;5012937;28;20484;-76
2021/11/25 00:04:21;;;;;;;27.35;11.18;;;7.00;97.80;;;;;;5012769;28;20451;-75
2021/11/25 00:06:47;;;;;;;28.27;10.95;;;6.90;97.80;;;;;;5012639;28;20024;-76
2021/11/25 00:09:13;;;;;;;24.25;10.80;;;6.90;97.80;;;;;;5011536;28;20103;-75
2021/11/25 00:11:39;;;;;;;30.27;11.57;;;6.90;97.80;;;;;;5012726;28;20021;-76
2021/11/25 00:14:05;;;;;;;30.52;12.13;;;6.90;97.80;;;;;;5012940;28;20462;-76
2021/11/25 00:16:31;;;;;;;24.92;10.50;;;6.90;97.80;;;;;;5013039;28;20022;-76
2021/11/25 00:18:57;;;;;;;25.88;11.57;;;6.90;97.70;;;;;;5012627;28;20056;-76
2021/11/25 00:21:23;;;;;;;28.10;11.48;;;6.90;97.70;;;;;;5012953;28;20040;-76
2021/11/25 00:23:49;;;;;;;24.77;10.85;;;6.90;97.60;;;;;;5012931;28;20385;-76
2021/11/25 00:26:17;;;;;;;26.00;11.27;;;6.90;97.60;;;;;;5012953;28;20030;-76
2021/11/25 00:28:43;;;;;;;23.95;10.63;;;6.90;97.60;;;;;;5012793;28;20026;-75
2021/11/25 00:31:09;;;;;;;27.50;10.98;;;7.00;97.60;;;;;;5012828;28;20382;-76
2021/11/25 00:33:35;;;;;;;26.48;11.70;;;6.90;97.50;;;;;;5011669;28;20030;-76
2021/11/25 00:36:01;;;;;;;26.90;10.52;;;7.00;97.60;;;;;;5013537;28;20033;-75
2021/11/25 00:38:27;;;;;;;24.98;11.43;;;7.00;97.60;;;;;;5013523;28;20486;-75
2021/11/25 00:40:53;;;;;;;25.00;11.85;;;7.00;97.50;;;;;;5011600;28;20445;-75
2021/11/25 00:43:20;;;;;;;24.60;11.15;;;7.10;97.50;;;;;;5013582;28;20082;-75
2021/11/25 00:45:47;;;;;;;20.73;10.48;;;7.10;97.40;;;;;;5012401;28;20022;-75
2021/11/25 00:48:13;;;;;;;26.13;11.07;;;7.10;97.40;;;;;;5011339;28;20030;-76
2021/11/25 00:50:39;;;;;;;30.02;10.70;;;7.10;97.40;;;;;;5010748;28;20026;-75
2021/11/25 00:53:05;;;;;;;28.27;10.95;;;7.10;97.30;;;;;;5012436;28;20030;-76
2021/11/25 00:55:30;;;;;;;26.45;10.85;;;7.10;97.30;;;;;;5011349;28;20348;-76
2021/11/25 00:57:56;;;;;;;25.88;11.40;;;7.10;97.30;;;;;;5011752;28;20381;-76
2021/11/25 01:00:23;;;;;;;26.63;11.25;;;7.10;97.40;;;;;;5012553;28;20076;-76
2021/11/25 01:02:50;;;;;;;26.27;11.85;;;7.10;97.40;;;;;;5011753;28;20081;-76
2021/11/25 01:05:16;;;;;;;25.77;12.15;;;7.10;97.40;;;;;;5011141;28;20112;-77
2021/11/25 01:07:43;;;;;;;24.92;11.30;;;7.00;97.40;;;;;;5012251;28;20030;-77
2021/11/25 01:10:13;;;;;;;25.67;11.38;;;7.00;97.40;;;;;;5012409;28;20061;-75
2021/11/25 01:12:39;;;;;;;24.88;10.45;;;7.00;97.40;;;;;;5010344;28;20065;-75
2021/11/25 01:15:08;;;;;;;23.83;10.55;;;7.00;97.40;;;;;;5012354;28;20465;-75
2021/11/25 01:17:34;;;;;;;24.85;11.18;;;7.00;97.40;;;;;;5014567;28;20037;-75
2021/11/25 01:20:00;;;;;;;28.13;11.43;;;7.00;97.40;;;;;;5015805;28;20033;-75
2021/11/25 01:22:26;;;;;;;27.27;12.35;;;6.90;97.40;;;;;;5015029;28;20022;-76
2021/11/25 01:24:51;;;;;;;25.30;11.13;;;6.90;97.50;;;;;;5016075;28;20029;-75
2021/11/25 01:27:17;;;;;;;24.65;11.50;;;6.90;97.50;;;;;;5015793;28;20057;-75
2021/11/25 01:29:43;;;;;;;23.38;10.82;;;6.90;97.50;;;;;;5015415;28;20021;-76
2021/11/25 01:32:09;;;;;;;22.85;10.88;;;6.80;97.50;;;;;;5014390;28;20034;-75
2021/11/25 01:34:35;;;;;;;23.73;11.25;;;6.80;97.50;;;;;;5015958;28;20022;-75
2021/11/25 01:37:01;;;;;;;26.35;11.57;;;6.80;97.70;;;;;;5015772;28;20057;-75
2021/11/25 01:39:27;;;;;;;22.65;10.77;;;6.80;97.40;;;;;;5016245;28;20021;-75
2021/11/25 01:41:53;;;;;;;29.98;10.88;;;6.80;97.40;;;;;;5015506;28;20029;-77
2021/11/25 01:44:18;;;;;;;23.30;10.93;;;6.90;97.40;;;;;;5015703;28;20024;-77
2021/11/25 01:46:44;;;;;;;28.10;11.38;;;7.00;97.30;;;;;;5015317;28;20429;-75
2021/11/25 01:49:10;;;;;;;23.85;10.82;;;7.00;97.30;;;;;;5013705;28;20112;-75
2021/11/25 01:51:36;;;;;;;26.70;11.32;;;7.10;97.20;;;;;;5015762;28;20531;-76
2021/11/25 01:54:02;;;;;;;26.30;11.75;;;7.00;97.20;;;;;;5013911;28;20550;-76
2021/11/25 01:56:28;;;;;;;26.05;11.63;;;7.00;97.30;;;;;;5015547;28;20485;-76
2021/11/25 01:58:54;;;;;;;27.13;10.98;;;7.10;97.30;;;;;;5015121;28;20029;-76
2021/11/25 02:01:22;;;;;;;23.27;11.32;;;7.10;97.20;;;;;;5014370;28;20033;-75
2021/11/25 02:03:49;;;;;;;25.95;11.40;;;7.10;97.20;;;;;;5015060;28;20029;-75
2021/11/25 02:06:19;;;;;;;24.02;9.90;;;7.20;97.10;;;;;;5014128;28;20028;-76
2021/11/25 02:08:45;;;;;;;32.17;12.15;;;7.20;97.10;;;;;;5013393;28;20454;-76
2021/11/25 02:11:11;;;;;;;25.20;11.13;;;7.20;97.00;;;;;;5015386;28;20026;-76
2021/11/25 02:13:37;;;;;;;24.85;11.57;;;7.20;97.00;;;;;;5013918;28;20041;-75
2021/11/25 02:16:03;;;;;;;27.52;12.70;;;7.20;97.00;;;;;;5013449;28;20449;-75
2021/11/25 02:18:29;;;;;;;27.02;10.40;;;7.20;97.00;;;;;;5015151;28;20026;-76
2021/11/25 02:21:00;;;;;;;24.95;11.05;;;7.20;97.00;;;;;;5013421;28;20029;-75
2021/11/25 02:23:26;;;;;;;25.63;10.97;;;7.20;97.10;;;;;;5014009;28;20390;-76
2021/11/25 02:25:53;;;;;;;24.27;9.95;;;7.10;97.10;;;;;;5014708;28;20257;-76
2021/11/25 02:28:20;;;;;;;23.02;10.68;;;7.20;97.10;;;;;;5014664;28;20022;-76
2021/11/25 02:30:47;;;;;;;21.73;10.40;;;7.10;97.00;;;;;;5013189;28;20445;-75
2021/11/25 02:33:13;;;;;;;24.63;10.60;;;7.10;97.00;;;;;;5014603;28;20029;-76
2021/11/25 02:35:39;;;;;;;26.60;11.32;;;7.10;97.10;;;;;;5013630;28;20450;-76
2021/11/25 02:38:06;;;;;;;25.25;10.88;;;7.10;97.10;;;;;;5014402;28;20018;-76
2021/11/25 02:40:40;;;;;;;23.55;11.02;;;7.10;97.10;;;;;;5013545;28;20466;-76
2021/11/25 02:43:10;;;;;;;24.63;11.18;;;7.00;97.30;;;;;;5014373;28;20112;-76
2021/11/25 02:45:49;;;;;;;24.08;10.75;;;7.00;97.10;;;;;;5013573;28;20037;-76
2021/11/25 02:48:17;;;;;;;25.27;11.20;;;7.00;97.10;;;;;;5013522;28;20060;-76
2021/11/25 02:50:44;;;;;;;23.10;10.65;;;7.00;97.10;;;;;;5014483;28;20025;-76
2021/11/25 02:53:12;;;;;;;21.60;10.23;;;7.00;97.10;;;;;;5014595;28;20034;-74
2021/11/25 02:55:38;;;;;;;23.00;9.40;;;7.00;97.10;;;;;;5013196;28;20025;-76
2021/11/25 02:58:05;;;;;;;28.13;11.15;;;7.00;97.10;;;;;;5012425;28;20026;-75
2021/11/25 03:00:35;;;;;;;22.88;9.70;;;7.00;97.10;;;;;;5013220;28;20125;-75
2021/11/25 03:03:19;;;;;;;25.42;11.45;;;7.00;97.10;;;;;;5013623;28;20110;-75
2021/11/25 03:05:48;;;;;;;25.88;10.82;;;7.00;97.00;;;;;;5013097;28;20477;-75
2021/11/25 03:08:16;;;;;;;26.98;13.13;;;7.00;97.00;;;;;;5013961;28;20026;-75
2021/11/25 03:10:45;;;;;;;23.85;11.50;;;6.90;96.90;;;;;;5012453;28;20104;-75
2021/11/25 03:13:14;;;;;;;25.17;10.18;;;6.90;96.90;;;;;;5014052;28;20123;-75
2021/11/25 03:15:41;;;;;;;27.73;13.10;;;6.90;96.90;;;;;;5012883;28;20036;-76
2021/11/25 03:18:09;;;;;;;20.10;9.68;;;6.90;96.80;;;;;;5013734;28;20045;-76
2021/11/25 03:20:37;;;;;;;26.60;11.95;;;6.90;96.80;;;;;;5014021;28;20084;-76
2021/11/25 03:23:05;;;;;;;22.45;10.35;;;7.00;96.80;;;;;;5013489;28;20022;-76
2021/11/25 03:25:32;;;;;;;26.35;11.55;;;6.90;96.70;;;;;;5012638;28;20026;-76
2021/11/25 03:27:57;;;;;;;26.35;11.07;;;6.90;96.70;;;;;;5013478;28;20076;-76
2021/11/25 03:30:23;;;;;;;20.80;11.00;;;6.90;96.70;;;;;;5012897;28;20018;-76
2021/11/25 03:32:49;;;;;;;20.95;11.32;;;6.90;96.70;;;;;;5012080;28;20040;-76
2021/11/25 03:35:14;;;;;;;23.77;11.32;;;6.90;96.70;;;;;;5013556;28;20030;-75
2021/11/25 03:37:40;;;;;;;21.02;10.35;;;6.90;96.60;;;;;;5014249;28;20057;-75
2021/11/25 03:40:07;;;;;;;25.48;11.25;;;6.90;96.60;;;;;;5012419;28;20099;-75
2021/11/25 03:42:33;;;;;;;23.95;11.73;;;7.00;96.60;;;;;;5013637;28;20113;-75
2021/11/25 03:44:59;;;;;;;21.85;9.98;;;7.00;96.60;;;;;;5011859;28;20433;-75
2021/11/25 03:47:24;;;;;;;22.67;11.23;;;7.00;96.60;;;;;;5013172;28;20024;-75
2021/11/25 03:49:50;;;;;;;21.63;11.02;;;7.00;96.50;;;;;;5011860;28;20025;-75
2021/11/25 03:52:16;;;;;;;20.27;10.18;;;7.00;96.60;;;;;;5013150;28;20048;-76
2021/11/25 03:54:42;;;;;;;22.73;11.93;;;7.00;96.60;;;;;;5045321;28;20018;-75
2021/11/25 03:57:08;;;;;;;21.67;12.13;;;7.00;96.60;;;;;;5011753;28;20071;-75
2021/11/25 03:59:34;;;;;;;21.95;11.43;;;7.00;96.50;;;;;;5013448;28;20109;-76
2021/11/25 04:02:00;;;;;;;24.15;12.68;;;7.00;96.50;;;;;;5044753;28;20045;-77
2021/11/25 04:04:27;;;;;;;21.75;11.65;;;7.00;96.40;;;;;;5013321;28;20455;-76
2021/11/25 04:06:52;;;;;;;21.08;11.05;;;7.00;96.40;;;;;;5012583;28;20014;-76
2021/11/25 04:09:18;;;;;;;20.17;11.32;;;6.90;96.40;;;;;;5013149;28;20044;-76
2021/11/25 04:11:44;;;;;;;22.67;10.77;;;6.90;96.40;;;;;;5013206;28;20041;-76
2021/11/25 04:14:10;;;;;;;26.35;12.43;;;6.90;96.50;;;;;;5012610;28;20052;-76
2021/11/25 04:16:35;;;;;;;24.15;12.73;;;6.90;96.40;;;;;;5012844;28;20026;-76
2021/11/25 04:19:01;;;;;;;21.10;11.13;;;6.90;96.40;;;;;;5012587;28;20022;-76
2021/11/25 04:21:27;;;;;;;25.75;12.55;;;6.90;96.40;;;;;;5012713;28;20032;-76
2021/11/25 04:23:53;;;;;;;26.25;12.07;;;6.90;96.30;;;;;;5012594;28;20033;-76
2021/11/25 04:26:18;;;;;;;22.88;10.77;;;6.90;96.30;;;;;;5011990;28;20060;-76
2021/11/25 04:28:44;;;;;;;24.00;12.07;;;6.90;96.40;;;;;;5013068;28;20454;-76
2021/11/25 04:36:40;;;;;;;20.85;10.10;;;7.00;96.30;;;;;;5012920;28;20060;-76
2021/11/25 04:39:07;;;;;;;22.60;10.95;;;6.90;96.30;;;;;;5012410;28;20022;-75
2021/11/25 04:41:34;;;;;;;25.08;12.05;;;7.00;96.30;;;;;;5011512;28;20409;-75
2021/11/25 04:44:00;;;;;;;19.95;10.75;;;7.00;96.30;;;;;;5012301;28;20029;-76
2021/11/25 04:46:26;;;;;;;23.00;11.82;;;7.00;96.30;;;;;;5012955;28;20036;-76
2021/11/25 04:48:51;;;;;;;21.35;11.50;;;7.00;96.30;;;;;;5024146;28;20351;-75
2021/11/25 04:51:17;;;;;;;19.23;10.75;;;7.00;96.30;;;;;;5031707;28;20140;-76
2021/11/25 04:53:43;;;;;;;21.55;10.95;;;7.00;96.20;;;;;;5032309;28;20574;-75
2021/11/25 04:56:09;;;;;;;22.88;11.45;;;7.00;96.20;;;;;;5030501;28;20116;-76
2021/11/25 04:58:35;;;;;;;21.25;10.57;;;7.10;96.20;;;;;;5032397;28;20026;-76
2021/11/25 05:01:01;;;;;;;18.25;9.00;;;7.00;96.10;;;;;;5030525;28;20485;-76
2021/11/25 05:03:27;;;;;;;27.88;12.65;;;7.00;96.10;;;;;;5017150;28;20491;-76
2021/11/25 05:05:54;;;;;;;20.42;10.70;;;7.00;96.10;;;;;;5011154;28;20112;-76
2021/11/25 05:08:21;;;;;;;21.10;11.18;;;7.00;96.10;;;;;;5011109;28;20022;-75
2021/11/25 05:10:47;;;;;;;27.73;11.77;;;6.90;96.10;;;;;;5012430;28;20509;-75
2021/11/25 05:13:12;;;;;;;23.90;12.00;;;6.90;96.10;;;;;;5011155;28;20113;-75
2021/11/25 05:15:38;;;;;;;22.05;10.77;;;6.90;96.10;;;;;;5010786;28;20031;-75
2021/11/25 05:18:04;;;;;;;19.88;11.10;;;6.90;96.10;;;;;;5011345;28;20033;-75
2021/11/25 05:20:31;;;;;;;22.42;11.18;;;6.90;96.10;;;;;;5009987;28;20041;-75
2021/11/25 05:22:57;;;;;;;22.92;12.18;;;6.90;96.10;;;;;;5011380;28;20057;-75
2021/11/25 05:25:23;;;;;;;21.55;11.88;;;6.90;96.00;;;;;;5011971;28;20107;-75
2021/11/25 05:27:50;;;;;;;25.65;9.82;;;7.00;96.10;;;;;;5044109;28;20046;-75
2021/11/25 05:30:17;;;;;;;18.42;9.82;;;6.90;96.00;;;;;;5011823;28;20022;-76
2021/11/25 05:32:44;;;;;;;21.98;11.20;;;6.80;96.00;;;;;;5010781;28;20030;-75
2021/11/25 05:35:11;;;;;;;21.17;11.27;;;6.80;96.00;;;;;;5011463;28;20030;-74
2021/11/25 05:37:37;;;;;;;25.80;12.93;;;6.80;96.00;;;;;;5012192;28;20454;-76
2021/11/25 05:40:06;;;;;;;23.73;12.02;;;6.80;96.00;;;;;;5011770;28;20025;-74
2021/11/25 05:42:32;;;;;;;23.30;11.95;;;6.80;96.00;;;;;;5012139;28;20100;-73
2021/11/25 05:44:59;;;;;;;19.98;11.10;;;6.80;96.00;;;;;;5011843;28;20018;-75
2021/11/25 05:47:25;;;;;;;21.75;10.55;;;6.70;96.00;;;;;;5012107;28;20473;-76
2021/11/25 05:49:50;;;;;;;22.45;11.75;;;6.70;96.10;;;;;;5043038;28;20026;-76
2021/11/25 05:52:16;;;;;;;22.98;12.25;;;6.70;96.10;;;;;;5010415;28;20382;-76
2021/11/25 05:54:42;;;;;;;24.52;12.65;;;6.70;96.10;;;;;;5010700;28;20022;-76
2021/11/25 05:57:08;;;;;;;29.60;14.85;;;6.70;96.00;;;;;;5011273;28;20398;-76
2021/11/25 05:59:34;;;;;;;23.63;11.75;;;6.60;96.10;;;;;;5011817;28;20030;-77
2021/11/25 06:02:02;;;;;;;29.92;12.70;;;6.60;96.40;;;;;;4996026;28;20027;-77
2021/11/25 06:04:28;;;;;;;27.60;12.77;;;6.60;96.10;;;;;;4994111;28;20018;-77
2021/11/25 06:06:54;;;;;;;25.40;12.77;;;6.70;96.10;;;;;;4996436;28;20144;-75
2021/11/25 06:09:19;;;;;;;23.50;12.02;;;6.70;96.00;;;;;;4992931;28;20058;-76
2021/11/25 06:11:47;;;;;;;25.75;13.13;;;6.70;96.00;;;;;;4994544;28;20029;-76
2021/11/25 06:14:12;;;;;;;24.75;13.23;;;6.70;96.00;;;;;;4994478;28;20038;-76
2021/11/25 06:16:38;;;;;;;24.63;11.65;;;6.70;96.00;;;;;;4995566;28;20077;-74
2021/11/25 06:19:04;;;;;;;24.52;12.65;;;6.60;96.00;;;;;;4995174;28;20110;-75
2021/11/25 06:21:30;;;;;;;25.23;12.95;;;6.60;96.00;;;;;;4995778;28;20031;-74
2021/11/25 06:23:55;;;;;;;29.52;14.63;;;6.60;96.00;;;;;;4995463;28;20064;-75
2021/11/25 06:26:21;;;;;;;24.77;13.48;;;6.60;95.90;;;;;;4995117;28;20041;-76
2021/11/25 06:28:47;;;;;;;27.52;13.23;;;6.60;95.90;;;;;;4995666;28;20027;-75
2021/11/25 06:31:12;;;;;;;29.45;14.85;;;6.60;95.90;;;;;;4993340;28;20098;-75
2021/11/25 06:33:38;;;;;;;28.83;13.65;;;6.60;95.90;;;;;;4994851;28;20041;-75
2021/11/25 06:36:04;;;;;;;29.20;15.07;;;6.60;95.90;;;;;;4994808;28;20430;-75
2021/11/25 06:38:30;;;;;;;32.25;15.77;;;6.60;95.80;;;;;;4994242;28;20084;-75
2021/11/25 06:40:55;;;;;;;29.15;14.45;;;6.60;95.80;;;;;;4993965;28;20382;-75
2021/11/25 06:43:22;;;;;;;30.40;14.18;;;6.50;95.80;;;;;;4994621;28;20217;-76
2021/11/25 06:45:48;;;;;;;30.83;14.57;;;6.60;95.80;;;;;;4993507;28;20022;-75
2021/11/25 06:48:14;;;;;;;26.10;12.90;;;6.50;95.80;;;;;;4994319;28;20072;-75
2021/11/25 06:50:39;;;;;;;27.48;13.30;;;6.50;95.80;;;;;;4993765;28;20018;-75
2021/11/25 06:53:06;;;;;;;26.77;13.75;;;6.60;95.90;;;;;;4994596;28;20042;-75
2021/11/25 06:55:32;;;;;;;26.48;13.98;;;6.60;96.10;;;;;;4993667;28;20113;-75
2021/11/25 06:57:58;;;;;;;26.00;13.65;;;6.60;95.90;;;;;;4993735;28;20022;-76
2021/11/25 07:00:26;;;;;;;27.48;13.60;;;6.50;95.90;;;;;;4994646;28;20041;-76
2021/11/25 07:02:53;;;;;;;25.25;13.38;;;6.50;96.00;;;;;;4994912;28;20030;-75
2021/11/25 07:05:20;;;;;;;25.33;12.80;;;6.60;96.00;;;;;;4994281;28;20474;-75
2021/11/25 07:07:46;;;;;;;27.40;13.05;;;6.60;95.90;;;;;;4994408;28;20382;-75
2021/11/25 07:10:13;;;;;;;25.48;13.68;;;6.60;96.00;;;;;;4992598;28;20503;-75
2021/11/25 07:12:40;;;;;;;24.23;12.93;;;6.60;96.10;;;;;;4993211;28;20034;-75
2021/11/25 07:15:11;;;;;;;23.88;12.32;;;6.60;96.10;;;;;;4992934;28;20030;-75
2021/11/25 07:17:36;;;;;;;21.33;12.63;;;6.60;96.00;;;;;;4993907;28;20089;-75
2021/11/25 07:20:03;;;;;;;24.00;12.80;;;6.70;96.00;;;;;;4994242;28;20058;-74
2021/11/25 07:22:29;;;;;;;21.33;10.40;;;6.70;96.00;;;;;;4993015;28;20026;-75
2021/11/25 07:24:56;;;;;;;24.13;11.32;;;6.70;96.00;;;;;;4992999;28;20027;-74
2021/11/25 07:27:22;;;;;;;20.60;11.82;;;6.70;96.00;;;;;;4992498;28;20113;-75
2021/11/25 07:29:48;;;;;;;24.10;11.60;;;6.70;96.00;;;;;;4993913;28;20371;-75
2021/11/25 07:32:13;;;;;;;23.02;12.48;;;6.70;95.90;;;;;;4993398;28;20037;-75
2021/11/25 07:34:39;;;;;;;21.73;11.57;;;6.70;95.90;;;;;;4994397;28;20348;-75
2021/11/25 07:37:05;;;;;;;22.48;10.43;;;6.70;96.00;;;;;;4992583;28;20537;-75
2021/11/25 07:39:31;;;;;;;24.63;12.35;;;6.70;96.00;;;;;;4992867;28;20022;-75
2021/11/25 07:41:56;;;;;;;25.23;11.82;;;6.60;95.90;;;;;;4993799;28;20061;-76
2021/11/25 07:44:22;;;;;;;19.33;10.77;;;6.70;96.00;;;;;;4992276;28;20018;-76
2021/11/25 07:46:48;;;;;;;21.75;11.70;;;6.60;95.90;;;;;;4992424;28;20023;-75
2021/11/25 07:49:13;;;;;;;23.52;12.27;;;6.70;95.90;;;;;;4992207;28;20116;-76
2021/11/25 07:51:39;;;;;;;23.10;12.10;;;6.70;95.90;;;;;;4994188;28;20178;-75
2021/11/25 07:54:08;;;;;;;22.65;12.75;;;6.60;95.90;;;;;;4993817;28;20433;-74
2021/11/25 07:56:41;;;;;;;21.45;11.25;;;6.60;95.90;;;;;;4992519;28;20053;-74
2021/11/25 07:59:07;;;;;;;25.20;12.45;;;6.60;95.90;;;;;;4993891;28;20022;-74
2021/11/25 08:01:34;;;;;;;22.27;13.00;;;6.70;95.90;;;;;;4993096;28;20022;-75
2021/11/25 08:04:00;;;;;;;20.88;11.85;;;6.70;95.80;;;;;;4992429;28;20026;-75
2021/11/25 08:06:26;;;;;;;25.23;11.80;;;6.80;95.70;;;;;;4993175;28;20038;-74
2021/11/25 08:08:51;;;;;;;24.05;12.57;;;6.80;95.70;;;;;;4993331;28;20474;-75
2021/11/25 08:11:17;;;;;;;20.30;10.43;;;6.90;95.50;;;;;;4992671;28;20410;-75
2021/11/25 08:13:43;;;;;;;23.30;11.52;;;6.80;95.50;;;;;;4993313;28;20125;-75
2021/11/25 08:16:13;;;;;;;17.88;9.13;;;6.90;95.50;;;;;;5024164;28;20026;-76
2021/11/25 08:18:39;;;;;;;21.05;11.85;;;6.90;95.50;;;;;;4991766;28;20029;-75
2021/11/25 08:21:05;;;;;;;20.45;10.45;;;6.90;95.50;;;;;;4993127;28;20026;-75
2021/11/25 08:23:31;;;;;;;21.83;11.65;;;7.00;95.50;;;;;;4993230;28;20026;-75
2021/11/25 08:25:56;;;;;;;24.30;12.43;;;6.90;95.40;;;;;;4992918;28;20486;-75
2021/11/25 08:28:24;;;;;;;22.70;13.00;;;6.90;95.40;;;;;;4991475;28;20339;-75
2021/11/25 08:30:52;;;;;;;21.42;12.63;;;6.80;95.40;;;;;;4993180;28;20018;-76
2021/11/25 08:33:18;;;;;;;24.13;12.35;;;6.80;95.40;;;;;;4991418;28;20034;-76
2021/11/25 08:35:44;;;;;;;23.63;12.73;;;6.90;95.50;;;;;;4993287;28;20038;-76
2021/11/25 08:38:10;;;;;;;24.15;13.35;;;6.90;95.40;;;;;;4991482;28;20026;-76
2021/11/25 08:40:36;;;;;;;28.27;13.93;;;6.90;95.30;;;;;;4991889;28;20019;-74
2021/11/25 08:43:01;;;;;;;21.80;12.30;;;6.90;95.10;;;;;;4993501;28;20466;-74
2021/11/25 08:45:28;;;;;;;30.48;14.13;;;6.90;95.10;;;;;;4992651;28;20030;-75
2021/11/25 08:47:53;;;;;;;21.30;12.50;;;7.00;95.00;;;;;;4991685;28;20031;-75
2021/11/25 08:50:19;;;;;;;24.52;13.30;;;7.00;95.00;;;;;;4992610;28;20033;-75
2021/11/25 08:52:46;;;;;;;25.85;12.32;;;7.00;94.90;;;;;;4992955;28;20038;-76
2021/11/25 08:55:11;;;;;;;21.42;12.73;;;7.00;94.90;;;;;;4992505;28;20077;-76
2021/11/25 08:57:39;;;;;;;21.83;11.52;;;7.00;95.00;;;;;;4993139;28;20030;-76
2021/11/25 09:00:06;;;;;;;26.08;14.15;;;7.00;95.00;;;;;;4992538;28;20041;-75
2021/11/25 09:02:32;;;;;;;24.55;12.63;;;7.00;95.00;;;;;;4991022;28;20038;-75
2021/11/25 09:04:58;;;;;;;27.25;12.73;;;7.00;95.00;;;;;;4991460;28;20019;-74
2021/11/25 09:07:24;;;;;;;22.00;12.50;;;7.00;95.10;;;;;;4992118;28;20371;-75
2021/11/25 09:09:49;;;;;;;26.20;13.18;;;7.00;95.10;;;;;;4992432;28;20077;-76
2021/11/25 09:12:15;;;;;;;27.60;14.63;;;7.10;95.00;;;;;;4991995;28;20045;-75
2021/11/25 09:14:41;;;;;;;24.02;13.45;;;7.10;95.00;;;;;;4992827;28;20068;-75
2021/11/25 09:17:06;;;;;;;24.38;13.93;;;7.20;95.10;;;;;;4991594;28;20185;-75
2021/11/25 09:19:32;;;;;;;29.88;13.95;;;7.20;95.00;;;;;;4991010;28;20487;-75
2021/11/25 09:21:58;;;;;;;24.50;11.98;;;7.20;95.00;;;;;;4991440;28;20022;-76
2021/11/25 09:24:24;;;;;;;24.20;12.80;;;7.30;94.90;;;;;;4992291;28;20106;-75
2021/11/25 09:26:49;;;;;;;21.00;11.70;;;7.30;94.90;;;;;;4991404;28;20027;-75
2021/11/25 09:29:16;;;;;;;23.50;11.82;;;7.30;94.90;;;;;;4992263;28;20046;-76
2021/11/25 09:31:42;;;;;;;23.27;12.02;;;7.40;94.90;;;;;;4992662;28;20378;-75
2021/11/25 09:34:08;;;;;;;25.33;13.45;;;7.40;94.80;;;;;;4992301;28;20113;-75
2021/11/25 09:36:35;;;;;;;28.10;12.55;;;7.40;94.80;;;;;;4990885;28;20539;-75
2021/11/25 09:39:05;;;;;;;26.13;13.85;;;7.50;94.70;;;;;;4994121;28;20037;-75
2021/11/25 09:41:30;;;;;;;26.25;14.13;;;7.40;94.70;;;;;;4994552;28;20026;-75
2021/11/25 09:43:56;;;;;;;24.30;13.48;;;7.40;94.70;;;;;;4996179;28;20072;-75
2021/11/25 09:46:23;;;;;;;26.30;12.82;;;7.40;94.70;;;;;;4995771;28;20378;-76
2021/11/25 09:48:49;;;;;;;21.75;12.35;;;7.30;94.80;;;;;;4994921;28;20382;-76
2021/11/25 09:51:16;;;;;;;29.30;15.27;;;7.30;94.80;;;;;;4996013;28;20400;-76
2021/11/25 09:53:41;;;;;;;24.70;13.35;;;7.20;94.80;;;;;;4996024;28;20034;-76
2021/11/25 09:56:08;;;;;;;26.10;14.60;;;7.10;94.90;;;;;;4996055;28;20410;-76
2021/11/25 09:58:36;;;;;;;25.77;13.82;;;7.00;95.10;;;;;;4995734;28;20026;-76
2021/11/25 10:01:11;;;;;;;30.05;15.60;;;6.90;95.20;;;;;;4996368;28;20034;-76
2021/11/25 10:03:38;;;;;;;25.02;12.63;;;6.90;95.20;;;;;;4995453;28;20113;-76
2021/11/25 10:06:05;;;;;;;26.92;13.45;;;6.90;95.20;;;;;;4994568;28;20030;-76
2021/11/25 10:08:44;;;;;;;24.55;12.70;;;6.90;95.20;;;;;;4995433;28;20120;-76
2021/11/25 10:11:23;;;;;;;24.98;13.82;;;6.90;95.30;;;;;;4994143;28;20066;-76
2021/11/25 10:13:55;;;;;;;27.42;14.63;;;6.90;95.30;;;;;;4995686;28;20434;-76
2021/11/25 10:16:41;;;;;;;26.88;13.95;;;6.90;95.30;;;;;;4995293;28;20058;-76
2021/11/25 10:19:24;;;;;;;27.95;15.13;;;6.90;95.30;;;;;;4995547;28;20057;-76
2021/11/25 10:21:56;;;;;;;26.90;13.80;;;6.80;95.30;;;;;;4994278;28;20027;-76
2021/11/25 10:24:43;;;;;;;27.05;14.55;;;6.80;95.40;;;;;;4995051;28;20061;-76
2021/11/25 10:27:22;;;;;;;27.10;14.32;;;6.80;95.40;;;;;;4994065;28;20383;-76
2021/11/25 10:30:07;;;;;;;24.33;13.30;;;6.80;95.50;;;;;;4994010;28;20029;-76
2021/11/25 10:32:33;;;;;;;26.33;14.60;;;6.80;95.50;;;;;;4994727;28;20041;-76
2021/11/25 10:35:24;;;;;;;28.90;13.93;;;6.80;95.50;;;;;;4994905;28;20022;-76
2021/11/25 10:38:37;;;;;;;23.80;14.40;;;6.80;95.60;;;;;;4994047;28;20114;-75
2021/11/25 10:40:39;;;;;;;25.73;13.48;;;6.80;95.60;;;;;;4996772;28;20034;-75
2021/11/25 10:43:20;;;;;;;28.67;14.77;;;6.90;95.60;;;;;;4995036;28;20026;-75
2021/11/25 10:45:48;;;;;;;26.87;13.27;;;6.90;95.70;;;;;;4995036;28;20037;-74
2021/11/25 10:48:29;;;;;;;28.67;13.43;;;6.80;95.60;;;;;;4993514;28;20647;-76
2021/11/25 10:50:55;;;;;;;22.65;12.32;;;6.80;95.80;;;;;;4995217;28;20018;-75
2021/11/25 10:53:21;;;;;;;24.75;14.30;;;6.80;95.80;;;;;;4994100;28;20035;-75
2021/11/25 10:55:47;;;;;;;26.63;13.90;;;6.80;95.80;;;;;;4994695;28;20022;-75
2021/11/25 10:58:13;;;;;;;23.95;12.65;;;6.80;95.90;;;;;;4994641;28;20026;-75
2021/11/25 11:00:42;;;;;;;26.95;14.05;;;6.80;96.00;;;;;;4994486;28;20790;-75
2021/11/25 11:03:29;;;;;;;24.52;14.65;;;6.90;96.00;;;;;;4994508;28;20394;-75
2021/11/25 11:06:01;;;;;;;22.45;12.95;;;6.90;96.00;;;;;;4994948;28;20057;-75
2021/11/25 11:08:29;;;;;;;25.70;14.70;;;6.90;96.10;;;;;;4994381;28;20022;-76
2021/11/25 11:11:04;;;;;;;24.33;13.55;;;6.90;96.10;;;;;;4992999;28;20105;-75
2021/11/25 11:13:38;;;;;;;27.67;13.95;;;7.00;96.20;;;;;;4992513;28;20038;-75
2021/11/25 11:18:43;;;;;;;32.53;15.18;;;7.20;96.00;;;;;;4994216;28;20030;-75
2021/11/25 11:21:37;;;;;;;28.25;15.05;;;7.20;96.00;;;;;;4993318;28;20025;-75
2021/11/25 11:24:21;;;;;;;30.08;15.38;;;7.20;96.00;;;;;;4993279;28;20030;-75
2021/11/25 11:26:56;;;;;;;27.25;13.60;;;7.30;96.00;;;;;;4993133;28;20022;-75
2021/11/25 11:29:30;;;;;;;27.85;13.90;;;7.40;95.90;;;;;;4993861;28;20025;-76
2021/11/25 11:31:58;;;;;;;27.23;13.88;;;7.40;95.90;;;;;;4993004;28;20022;-75
2021/11/25 11:34:25;;;;;;;29.15;13.90;;;7.50;95.90;;;;;;4992288;28;20075;-75
2021/11/25 11:36:53;;;;;;;29.60;15.48;;;7.50;95.90;;;;;;4992647;28;20113;-74
2021/11/25 11:39:27;;;;;;;27.65;14.27;;;7.50;95.90;;;;;;4994166;28;20030;-75
2021/11/25 11:41:58;;;;;;;31.95;16.33;;;7.60;95.90;;;;;;4994498;28;20034;-75
2021/11/25 11:44:25;;;;;;;27.60;14.27;;;7.60;95.90;;;;;;4993909;28;20034;-75
2021/11/25 11:47:00;;;;;;;29.77;15.35;;;7.50;95.80;;;;;;4992963;28;20053;-75
2021/11/25 11:49:26;;;;;;;33.47;16.08;;;7.50;95.90;;;;;;4993439;28;20153;-75
2021/11/25 11:52:05;;;;;;;36.35;16.08;;;7.60;96.00;;;;;;4993791;28;20096;-74
2021/11/25 11:54:43;;;;;;;31.23;13.82;;;7.60;95.90;;;;;;4993238;28;20038;-75
2021/11/25 11:57:27;;;;;;;31.55;17.27;;;7.50;96.00;;;;;;4992488;28;20064;-75
2021/11/25 11:59:54;;;;;;;32.95;15.23;;;7.50;96.10;;;;;;4992120;28;20026;-75
2021/11/25 12:02:43;;;;;;;31.85;16.10;;;7.60;96.10;;;;;;4993104;28;20026;-74
2021/11/25 12:05:09;;;;;;;30.73;15.50;;;7.60;96.20;;;;;;4993529;28;20077;-74
2021/11/25 12:07:37;;;;;;;32.83;16.20;;;7.70;96.10;;;;;;4993163;28;20031;-74
2021/11/25 12:10:04;;;;;;;33.17;17.38;;;7.80;96.00;;;;;;4992053;28;20053;-74
2021/11/25 12:12:29;;;;;;;22.30;11.52;;;7.80;96.00;;;;;;4991879;28;20030;-75
2021/11/25 12:14:57;;;;;;;38.63;16.70;;;7.90;96.00;;;;;;4993607;28;20451;-74
2021/11/25 12:17:27;;;;;;;35.85;16.08;;;7.90;96.00;;;;;;4993165;28;20542;-75
2021/11/25 12:19:53;;;;;;;30.58;16.63;;;7.90;96.00;;;;;;4992172;28;20038;-75
2021/11/25 12:22:20;;;;;;;27.27;13.60;;;8.00;96.00;;;;;;4993622;28;20034;-75
2021/11/25 12:24:49;;;;;;;32.50;15.45;;;7.90;95.90;;;;;;4993379;28;20078;-75
2021/11/25 12:27:39;;;;;;;31.67;16.40;;;8.00;96.00;;;;;;4993574;28;20025;-75
2021/11/25 12:30:15;;;;;;;28.92;15.50;;;7.90;96.40;;;;;;4993070;28;20088;-75
2021/11/25 12:32:43;;;;;;;36.45;15.30;;;8.00;96.10;;;;;;4991411;28;20069;-75
2021/11/25 12:35:34;;;;;;;36.63;15.48;;;8.00;96.00;;;;;;4993154;28;20458;-75
2021/11/25 12:38:05;;;;;;;36.60;17.33;;;8.10;96.10;;;;;;4992968;28;20471;-75
2021/11/25 12:40:36;;;;;;;34.50;15.20;;;8.00;96.10;;;;;;4991387;28;20034;-75
2021/11/25 12:43:04;;;;;;;;;;;8.00;96.10;;;;;;4993546;28;20475;-75
2021/11/25 12:45:34;;;;;;;33.00;15.93;;;8.00;96.20;;;;;;4992765;28;19906;-75
2021/11/25 12:48:10;;;;;;;33.63;16.38;;;7.90;96.30;;;;;;4991603;28;20026;-75
2021/11/25 12:50:38;;;;;;;35.08;15.23;;;7.90;96.40;;;;;;4991207;28;20029;-75